Map

Track Data

SID SEASON NUMBER BASIN SUBBASIN NAME ISO_TIME NATURE LAT LON WMO_WIND WMO_PRES WMO_AGENCY TRACK_TYPE DIST2LAND LANDFALL IFLAG USA_AGENCY USA_ATCF_ID USA_LAT USA_LON USA_RECORD USA_STATUS USA_WIND USA_PRES USA_SSHS USA_R34_NE USA_R34_SE USA_R34_SW USA_R34_NW USA_R50_NE USA_R50_SE USA_R50_SW USA_R50_NW USA_R64_NE USA_R64_SE USA_R64_SW USA_R64_NW USA_POCI USA_ROCI USA_RMW USA_EYE TOKYO_LAT TOKYO_LON TOKYO_GRADE TOKYO_WIND TOKYO_PRES TOKYO_R50_DIR TOKYO_R50_LONG TOKYO_R50_SHORT TOKYO_R30_DIR TOKYO_R30_LONG TOKYO_R30_SHORT TOKYO_LAND CMA_LAT CMA_LON CMA_CAT CMA_WIND CMA_PRES HKO_LAT HKO_LON HKO_CAT HKO_WIND HKO_PRES NEWDELHI_LAT NEWDELHI_LON NEWDELHI_GRADE NEWDELHI_WIND NEWDELHI_PRES NEWDELHI_CI NEWDELHI_DP NEWDELHI_POCI REUNION_LAT REUNION_LON REUNION_TYPE REUNION_WIND REUNION_PRES REUNION_TNUM REUNION_CI REUNION_RMW REUNION_R34_NE REUNION_R34_SE REUNION_R34_SW REUNION_R34_NW REUNION_R50_NE REUNION_R50_SE REUNION_R50_SW REUNION_R50_NW REUNION_R64_NE REUNION_R64_SE REUNION_R64_SW REUNION_R64_NW BOM_LAT BOM_LON BOM_TYPE BOM_WIND BOM_PRES BOM_TNUM BOM_CI BOM_RMW BOM_R34_NE BOM_R34_SE BOM_R34_SW BOM_R34_NW BOM_R50_NE BOM_R50_SE BOM_R50_SW BOM_R50_NW BOM_R64_NE BOM_R64_SE BOM_R64_SW BOM_R64_NW BOM_ROCI BOM_POCI BOM_EYE BOM_POS_METHOD BOM_PRES_METHOD NADI_LAT NADI_LON NADI_CAT NADI_WIND NADI_PRES WELLINGTON_LAT WELLINGTON_LON WELLINGTON_WIND WELLINGTON_PRES DS824_LAT DS824_LON DS824_STAGE DS824_WIND DS824_PRES TD9636_LAT TD9636_LON TD9636_STAGE TD9636_WIND TD9636_PRES TD9635_LAT TD9635_LON TD9635_WIND TD9635_PRES TD9635_ROCI NEUMANN_LAT NEUMANN_LON NEUMANN_CLASS NEUMANN_WIND NEUMANN_PRES MLC_LAT MLC_LON MLC_CLASS MLC_WIND MLC_PRES USA_GUST BOM_GUST BOM_GUST_PER REUNION_GUST REUNION_GUST_PER USA_SEAHGT USA_SEARAD_NE USA_SEARAD_SE USA_SEARAD_SW USA_SEARAD_NW STORM_SPEED STORM_DIR
1918080S12063 1918 25 SI MM NOT_NAMED 1918-03-21 06:00:00 NR -11.6000 62.6000 reunion main 1085 1080 _____O________ -1 -11.6000 62.6000 99 9.90000 1 264
1918080S12063 1918 25 SI MM NOT_NAMED 1918-03-21 09:00:00 NR -11.6067 62.5351 main 1080 1080 _____P________ -1 -11.6067 62.5351 99 1 263
1918080S12063 1918 25 SI MM NOT_NAMED 1918-03-21 12:00:00 NR -11.6164 62.4632 main 1080 1075 _____P________ -1 -11.6164 62.4632 99 2 261
1918080S12063 1918 25 SI MM NOT_NAMED 1918-03-21 15:00:00 NR -11.6320 62.3776 main 1075 1060 _____P________ -1 -11.6320 62.3776 99 2 258
1918080S12063 1918 25 SI MM NOT_NAMED 1918-03-21 18:00:00 NR -11.6563 62.2713 main 1060 1051 _____P________ -1 -11.6563 62.2713 99 2 255
1918080S12063 1918 25 SI MM NOT_NAMED 1918-03-21 21:00:00 NR -11.6924 62.1373 main 1051 1046 _____P________ -1 -11.6924 62.1373 99 3 254
1918080S12063 1918 25 SI MM NOT_NAMED 1918-03-22 00:00:00 NR -11.7431 61.9688 main 1046 1027 _____P________ -1 -11.7431 61.9688 99 4 252
1918080S12063 1918 25 SI MM NOT_NAMED 1918-03-22 03:00:00 NR -11.8114 61.7587 main 1027 1003 _____P________ -1 -11.8114 61.7587 99 5 251
1918080S12063 1918 25 SI MM NOT_NAMED 1918-03-22 06:00:00 NR -11.9000 61.5000 reunion main 1003 980 _____O________ -1 -11.9000 61.5000 99 9.90000 6 250
1918080S12063 1918 25 SI MM NOT_NAMED 1918-03-22 09:00:00 NR -12.0104 61.1884 main 980 958 _____P________ -1 -12.0104 61.1884 99 7 250
1918080S12063 1918 25 SI MM NOT_NAMED 1918-03-22 12:00:00 NR -12.1388 60.8301 main 954 922 _____P________ -1 -12.1388 60.8301 99 8 250
1918080S12063 1918 25 SI MM NOT_NAMED 1918-03-22 15:00:00 NR -12.2801 60.4339 main 919 896 _____P________ -1 -12.2801 60.4339 99 9 250
1918080S12063 1918 25 SI MM NOT_NAMED 1918-03-22 18:00:00 NR -12.4289 60.0088 main 896 863 _____P________ -1 -12.4289 60.0088 99 9 251
1918080S12063 1918 25 SI MM NOT_NAMED 1918-03-22 21:00:00 NR -12.5804 59.5639 main 863 841 _____P________ -1 -12.5804 59.5639 99 9 251
1918080S12063 1918 25 SI MM NOT_NAMED 1918-03-23 00:00:00 NR -12.7294 59.1080 main 841 812 _____P________ -1 -12.7294 59.1080 99 9 252
1918080S12063 1918 25 SI MM NOT_NAMED 1918-03-23 03:00:00 NR -12.8709 58.6504 main 812 796 _____P________ -1 -12.8709 58.6504 99 9 253
1918080S12063 1918 25 SI MM NOT_NAMED 1918-03-23 06:00:00 NR -13.0000 58.2000 reunion main 796 783 _____O________ -1 -13.0000 58.2000 99 9.90000 9 255
1918080S12063 1918 25 SI MM NOT_NAMED 1918-03-23 09:00:00 NR -13.1059 57.7704 main 783 772 _____P________ -1 -13.1059 57.7704 99 9 256
1918080S12063 1918 25 SI MM NOT_NAMED 1918-03-23 12:00:00 NR -13.2023 57.3399 main 766 722 _____P________ -1 -13.2023 57.3399 99 9 258
1918080S12063 1918 25 SI MM NOT_NAMED 1918-03-23 15:00:00 NR -13.2895 56.9132 main 722 677 _____P________ -1 -13.2895 56.9132 99 8 259
1918080S12063 1918 25 SI MM NOT_NAMED 1918-03-23 18:00:00 NR -13.3679 56.4950 main 677 636 _____P________ -1 -13.3679 56.4950 99 8 260
1918080S12063 1918 25 SI MM NOT_NAMED 1918-03-23 21:00:00 NR -13.4377 56.0898 main 636 591 _____P________ -1 -13.4377 56.0898 99 8 260
1918080S12063 1918 25 SI MM NOT_NAMED 1918-03-24 00:00:00 NR -13.4994 55.7025 main 591 557 _____P________ -1 -13.4994 55.7025 99 7 261
1918080S12063 1918 25 SI MM NOT_NAMED 1918-03-24 03:00:00 NR -13.5534 55.3377 main 547 516 _____P________ -1 -13.5534 55.3377 99 7 262
1918080S12063 1918 25 SI MM NOT_NAMED 1918-03-24 06:00:00 NR -13.6000 55.0000 reunion main 516 486 _____O________ -1 -13.6000 55.0000 99 9.90000 6 262
1918080S12063 1918 25 SI MM NOT_NAMED 1918-03-24 09:00:00 NR -13.6398 54.6928 main 486 452 _____P________ -1 -13.6398 54.6928 99 6 263
1918080S12063 1918 25 SI MM NOT_NAMED 1918-03-24 12:00:00 NR -13.6737 54.4134 main 452 432 _____P________ -1 -13.6737 54.4134 99 5 263
1918080S12063 1918 25 SI MM NOT_NAMED 1918-03-24 15:00:00 NR -13.7025 54.1580 main 432 402 _____P________ -1 -13.7025 54.1580 99 5 264
1918080S12063 1918 25 SI MM NOT_NAMED 1918-03-24 18:00:00 NR -13.7271 53.9225 main 402 383 _____P________ -1 -13.7271 53.9225 99 4 264
1918080S12063 1918 25 SI MM NOT_NAMED 1918-03-24 21:00:00 NR -13.7483 53.7029 main 383 359 _____P________ -1 -13.7483 53.7029 99 4 265
1918080S12063 1918 25 SI MM NOT_NAMED 1918-03-25 00:00:00 NR -13.7670 53.4953 main 359 339 _____P________ -1 -13.7670 53.4953 99 4 265
1918080S12063 1918 25 SI MM NOT_NAMED 1918-03-25 03:00:00 NR -13.7840 53.2957 main 339 320 _____P________ -1 -13.7840 53.2957 99 4 265
1918080S12063 1918 25 SI MM NOT_NAMED 1918-03-25 06:00:00 NR -13.8000 53.1000 reunion main 320 _____O________ -1 -13.8000 53.1000 99 9.90000 4 265

About IBTrACS Database

This database is a web-friendly format of International Best Track Archive for Climate Stewardship (IBTrACS), a global best track data archive curated by NOAA dating back to 1842.

Updated: 2021-12-03